createdAt,value
2023-01-29T00:00:11.929Z,-3.19
2023-01-29T00:02:38.292Z,-3.15
2023-01-29T00:05:20.997Z,-3.02
2023-01-29T00:07:52.699Z,-2.99
2023-01-29T00:10:19.102Z,-3.07
2023-01-29T00:12:45.474Z,-2.99
2023-01-29T00:15:12.168Z,-2.96
2023-01-29T00:17:38.536Z,-3.02
2023-01-29T00:20:05.355Z,-2.94
2023-01-29T00:22:31.742Z,-2.97
2023-01-29T00:24:58.192Z,-3.06
2023-01-29T00:27:24.556Z,-3.04
2023-01-29T00:30:09.220Z,-3.03
2023-01-29T00:32:36.047Z,-3.14
2023-01-29T00:35:02.640Z,-2.99
2023-01-29T00:37:28.996Z,-2.95
2023-01-29T00:39:55.365Z,-2.93
2023-01-29T00:42:40.411Z,-2.83
2023-01-29T00:45:07.364Z,-2.84
2023-01-29T00:47:33.996Z,-2.90
2023-01-29T00:50:05.086Z,-2.88
2023-01-29T00:52:31.504Z,-2.77
2023-01-29T00:54:59.723Z,-2.75
2023-01-29T00:57:27.859Z,-2.83
2023-01-29T00:59:54.354Z,-2.75
2023-01-29T01:02:39.308Z,-2.69
2023-01-29T01:05:07.664Z,-2.67
2023-01-29T01:07:34.240Z,-2.62
2023-01-29T01:10:19.003Z,-2.64
2023-01-29T01:15:30.577Z,-2.77
2023-01-29T01:17:59.037Z,-2.89
2023-01-29T01:20:27.052Z,-2.84
2023-01-29T01:22:54.249Z,-2.98
2023-01-29T01:25:21.830Z,-2.87
2023-01-29T01:27:48.238Z,-2.84
2023-01-29T01:30:16.486Z,-2.99
2023-01-29T01:32:42.989Z,-2.96
2023-01-29T01:35:10.420Z,-3.07
2023-01-29T01:37:37.587Z,-3.11
2023-01-29T01:40:12.761Z,-3.18
2023-01-29T01:42:40.329Z,-3.16
2023-01-29T01:45:10.268Z,-3.18
2023-01-29T01:48:07.699Z,-3.16
2023-01-29T01:50:53.834Z,-3.02
2023-01-29T01:53:26.073Z,-2.96
2023-01-29T01:55:59.868Z,-3.01
2023-01-29T01:58:30.010Z,-3.03
2023-01-29T02:00:56.676Z,-3.09
2023-01-29T02:03:42.851Z,-3.13
2023-01-29T02:06:28.466Z,-3.07
2023-01-29T02:09:17.169Z,-2.92
2023-01-29T02:11:43.628Z,-2.93
2023-01-29T02:14:11.034Z,-2.89
2023-01-29T02:16:37.540Z,-2.85
2023-01-29T02:19:06.296Z,-2.90
2023-01-29T02:21:52.987Z,-3.01
2023-01-29T02:24:48.972Z,-2.95
2023-01-29T02:27:19.828Z,-2.84
2023-01-29T02:30:03.935Z,-2.83
2023-01-29T02:32:54.241Z,-2.83
2023-01-29T02:35:40.351Z,-2.89
2023-01-29T02:38:12.267Z,-2.79
2023-01-29T02:41:22.331Z,-2.72
2023-01-29T02:44:15.253Z,-2.71
2023-01-29T02:46:47.565Z,-2.77
2023-01-29T02:49:24.328Z,-2.68
2023-01-29T02:52:03.611Z,-2.79
2023-01-29T02:54:48.824Z,-2.80
2023-01-29T02:57:25.270Z,-2.79
2023-01-29T03:00:08.598Z,-2.76
2023-01-29T03:02:43.156Z,-2.78
2023-01-29T03:05:15.263Z,-2.68
2023-01-29T03:07:44.669Z,-2.65
2023-01-29T03:10:23.916Z,-2.53
2023-01-29T03:12:55.500Z,-2.56
2023-01-29T03:16:01.338Z,-2.54
2023-01-29T03:18:31.993Z,-2.52
2023-01-29T03:21:02.123Z,-2.59
2023-01-29T03:23:49.147Z,-2.66
2023-01-29T03:26:35.543Z,-2.53
2023-01-29T03:29:22.175Z,-2.56
2023-01-29T03:32:04.697Z,-2.52
2023-01-29T03:34:38.808Z,-2.49
2023-01-29T03:37:09.316Z,-2.49
2023-01-29T03:39:36.820Z,-2.57
2023-01-29T03:42:15.328Z,-2.65
2023-01-29T03:44:51.627Z,-2.50
2023-01-29T03:47:24.912Z,-2.50
2023-01-29T03:50:05.724Z,-2.47
2023-01-29T03:52:49.655Z,-2.49
2023-01-29T03:55:35.213Z,-2.51
2023-01-29T03:58:14.540Z,-2.74
2023-01-29T04:00:45.377Z,-2.52
2023-01-29T04:03:19.638Z,-2.42
2023-01-29T04:06:05.317Z,-2.43
2023-01-29T04:08:34.279Z,-2.34
2023-01-29T04:11:04.922Z,-2.27
2023-01-29T04:13:33.663Z,-2.21
2023-01-29T04:16:01.075Z,-2.29
2023-01-29T04:18:27.756Z,-2.23
2023-01-29T04:20:54.382Z,-2.26
2023-01-29T04:23:22.826Z,-2.26
2023-01-29T04:25:57.469Z,-2.34
2023-01-29T04:28:28.896Z,-2.27
2023-01-29T04:31:07.828Z,-2.36
2023-01-29T04:33:57.393Z,-2.30
2023-01-29T04:36:35.460Z,-2.33
2023-01-29T04:39:17.291Z,-2.28
2023-01-29T04:41:43.779Z,-2.15
2023-01-29T04:44:16.705Z,-2.07
2023-01-29T04:47:09.276Z,-2.11
2023-01-29T04:49:37.701Z,-2.06
2023-01-29T04:52:13.099Z,-1.97
2023-01-29T04:54:54.670Z,-2.09
2023-01-29T04:57:27.014Z,-2.01
2023-01-29T05:00:05.105Z,-2.05
2023-01-29T05:02:34.584Z,-2.00
2023-01-29T05:05:01.210Z,-2.07
2023-01-29T05:07:28.820Z,-2.05
2023-01-29T05:09:56.113Z,-2.16
2023-01-29T05:12:25.524Z,-2.19
2023-01-29T05:14:53.558Z,-2.19
2023-01-29T05:17:20.533Z,-2.13
2023-01-29T05:19:47.313Z,-2.18
2023-01-29T05:22:15.833Z,-2.18
2023-01-29T05:24:42.232Z,-2.18
2023-01-29T05:27:33.658Z,-2.15
2023-01-29T05:30:00.013Z,-2.14
2023-01-29T05:32:26.391Z,-2.11
2023-01-29T05:34:52.762Z,-1.96
2023-01-29T05:37:19.243Z,-1.94
2023-01-29T05:39:45.693Z,-1.92
2023-01-29T05:42:12.056Z,-1.96
2023-01-29T05:44:38.438Z,-1.91
2023-01-29T05:47:04.835Z,-1.81
2023-01-29T05:49:31.210Z,-1.82
2023-01-29T05:51:57.584Z,-1.85
2023-01-29T05:54:23.967Z,-1.89
2023-01-29T05:56:50.364Z,-1.82
2023-01-29T05:59:16.892Z,-1.92
2023-01-29T06:01:43.320Z,-1.87
2023-01-29T06:04:09.768Z,-1.94
2023-01-29T06:06:36.146Z,-1.83
2023-01-29T06:09:02.544Z,-1.80
2023-01-29T06:11:29.062Z,-1.80
2023-01-29T06:13:55.493Z,-1.67
2023-01-29T06:16:21.918Z,-1.64
2023-01-29T06:18:48.326Z,-1.57
2023-01-29T06:21:14.773Z,-1.67
2023-01-29T06:23:41.272Z,-1.66
2023-01-29T06:26:10.846Z,-1.65
2023-01-29T06:28:37.358Z,-1.51
2023-01-29T06:31:23.712Z,-1.60
2023-01-29T06:33:51.524Z,-1.56
2023-01-29T06:36:17.950Z,-1.46
2023-01-29T06:38:44.353Z,-1.47
2023-01-29T06:41:11.928Z,-1.64
2023-01-29T06:43:38.933Z,-1.66
2023-01-29T06:46:07.737Z,-1.83
2023-01-29T06:48:34.475Z,-1.81
2023-01-29T06:51:05.902Z,-1.79
2023-01-29T06:53:34.092Z,-1.66
2023-01-29T06:56:00.570Z,-1.59
2023-01-29T06:58:27.022Z,-1.65
2023-01-29T07:00:53.444Z,-1.64
2023-01-29T07:03:21.024Z,-1.80
2023-01-29T07:05:52.311Z,-1.71
2023-01-29T07:08:19.388Z,-1.72
2023-01-29T07:10:45.827Z,-1.70
2023-01-29T07:13:12.198Z,-1.73
2023-01-29T07:15:38.557Z,-1.75
2023-01-29T07:18:11.781Z,-1.68
2023-01-29T07:20:42.070Z,-1.77
2023-01-29T07:23:15.272Z,-1.72
2023-01-29T07:25:41.881Z,-1.68
2023-01-29T07:28:08.352Z,-1.65
2023-01-29T07:30:35.031Z,-1.53
2023-01-29T07:33:07.144Z,-1.51
2023-01-29T07:35:41.710Z,-1.37
2023-01-29T07:38:09.525Z,-1.17
2023-01-29T07:40:36.030Z,-1.00
2023-01-29T07:43:05.045Z,-0.97
2023-01-29T07:45:31.968Z,-1.03
2023-01-29T07:47:58.390Z,-1.07
2023-01-29T07:50:26.495Z,-1.00
2023-01-29T07:52:56.501Z,-0.94
2023-01-29T07:55:23.338Z,-0.88
2023-01-29T07:58:00.474Z,-0.94
2023-01-29T08:00:27.312Z,-0.99
2023-01-29T08:02:53.862Z,-1.06
2023-01-29T08:05:20.224Z,-1.02
2023-01-29T08:07:54.134Z,-1.09
2023-01-29T08:10:27.634Z,-1.16
2023-01-29T08:12:58.428Z,-1.29
2023-01-29T08:15:24.963Z,-1.10
2023-01-29T08:17:57.737Z,-0.96
2023-01-29T08:20:24.597Z,-0.92
2023-01-29T08:22:59.107Z,-1.00
2023-01-29T08:25:25.718Z,-0.94
2023-01-29T08:27:52.329Z,-0.93
2023-01-29T08:30:18.749Z,-0.93
2023-01-29T08:32:45.132Z,-0.92
2023-01-29T08:35:11.497Z,-1.02
2023-01-29T08:37:37.893Z,-1.00
2023-01-29T08:40:04.657Z,-1.07
2023-01-29T08:42:31.031Z,-1.09
2023-01-29T08:44:57.393Z,-1.09
2023-01-29T08:47:23.775Z,-1.19
2023-01-29T08:49:50.127Z,-1.09
2023-01-29T08:52:16.572Z,-0.97
2023-01-29T08:54:42.930Z,-0.90
2023-01-29T08:57:09.308Z,-0.86
2023-01-29T08:59:35.691Z,-0.73
2023-01-29T09:02:02.111Z,-0.68
2023-01-29T09:04:28.593Z,-0.64
2023-01-29T09:06:55.152Z,-0.56
2023-01-29T09:09:21.508Z,-0.64
2023-01-29T09:11:47.931Z,-0.50
2023-01-29T09:14:14.648Z,-0.44
2023-01-29T09:16:41.036Z,-0.39
2023-01-29T09:19:08.212Z,-0.47
2023-01-29T09:21:34.597Z,-0.38
2023-01-29T09:24:00.972Z,-0.26
2023-01-29T09:26:27.401Z,-0.39
2023-01-29T09:28:53.790Z,-0.54
2023-01-29T09:31:20.339Z,-0.39
2023-01-29T09:33:46.853Z,-0.29
2023-01-29T09:36:13.325Z,-0.35
2023-01-29T09:38:39.834Z,-0.27
2023-01-29T09:41:16.560Z,-0.35
2023-01-29T09:43:49.249Z,-0.22
2023-01-29T09:46:41.707Z,-0.19
2023-01-29T09:49:17.321Z,-0.24
2023-01-29T09:51:47.896Z,-0.42
2023-01-29T09:54:17.315Z,-0.38
2023-01-29T09:56:45.565Z,-0.40
2023-01-29T09:59:13.407Z,-0.46
2023-01-29T10:02:01.562Z,-0.38
2023-01-29T10:04:55.592Z,-0.22
2023-01-29T10:07:46.992Z,-0.14
2023-01-29T10:10:21.468Z,-0.15
2023-01-29T10:13:07.939Z,-0.22
2023-01-29T10:15:49.914Z,-0.15
2023-01-29T10:18:47.393Z,-0.17
2023-01-29T10:21:32.369Z,-0.17
2023-01-29T10:24:26.384Z,-0.05
2023-01-29T10:26:53.379Z,0.08
2023-01-29T10:29:21.978Z,0.07
2023-01-29T10:31:52.501Z,0.27
2023-01-29T10:34:18.820Z,0.19
2023-01-29T10:36:46.858Z,0.22
2023-01-29T10:39:21.278Z,0.20
2023-01-29T10:41:54.101Z,0.03
2023-01-29T10:44:30.434Z,0.14
2023-01-29T10:47:21.541Z,0.07
2023-01-29T10:50:19.536Z,-0.04
2023-01-29T10:53:01.164Z,-0.02
2023-01-29T10:55:39.692Z,-0.01
2023-01-29T10:58:21.847Z,0.20
2023-01-29T11:00:48.248Z,0.27
2023-01-29T11:03:27.918Z,0.20
2023-01-29T11:06:13.049Z,0.15
2023-01-29T11:08:51.457Z,0.26
2023-01-29T11:11:19.370Z,0.30
2023-01-29T11:13:50.598Z,0.21
2023-01-29T11:16:17.178Z,0.26
2023-01-29T11:19:01.080Z,0.24
2023-01-29T11:21:29.544Z,0.28
2023-01-29T11:24:07.194Z,0.19
2023-01-29T11:26:36.335Z,0.16
2023-01-29T11:29:03.043Z,0.29
2023-01-29T11:31:36.083Z,0.27
2023-01-29T11:34:20.132Z,0.41
2023-01-29T11:36:46.852Z,0.36
2023-01-29T11:39:23.048Z,0.46
2023-01-29T11:42:00.368Z,0.43
2023-01-29T11:44:32.889Z,0.45
2023-01-29T11:47:11.578Z,0.39
2023-01-29T11:49:38.523Z,0.40
2023-01-29T11:52:07.653Z,0.32
2023-01-29T11:54:40.831Z,0.37
2023-01-29T11:57:27.786Z,0.36
2023-01-29T11:59:55.887Z,0.44
2023-01-29T12:02:42.303Z,0.47
2023-01-29T12:05:17.680Z,0.52
2023-01-29T12:07:46.212Z,0.45
2023-01-29T12:10:35.820Z,0.49
2023-01-29T12:13:11.933Z,0.49
2023-01-29T12:15:39.329Z,0.53
2023-01-29T12:18:18.118Z,0.49
2023-01-29T12:21:00.222Z,0.48
2023-01-29T12:23:42.023Z,0.51
2023-01-29T12:26:15.880Z,0.66
2023-01-29T12:29:07.382Z,0.66
2023-01-29T12:31:33.757Z,0.64
2023-01-29T12:34:10.693Z,0.64
2023-01-29T12:36:53.132Z,0.58
2023-01-29T12:39:19.728Z,0.52
2023-01-29T12:42:04.562Z,0.67
2023-01-29T12:44:42.255Z,0.88
2023-01-29T12:47:19.232Z,0.90
2023-01-29T12:49:50.924Z,0.75
2023-01-29T12:52:41.772Z,0.86
2023-01-29T12:55:12.462Z,0.86
2023-01-29T12:57:59.823Z,0.88
2023-01-29T13:00:46.866Z,0.97
2023-01-29T13:03:17.139Z,0.92
2023-01-29T13:06:10.529Z,1.05
2023-01-29T13:08:41.070Z,0.94
2023-01-29T13:11:19.899Z,1.09
2023-01-29T13:13:53.968Z,0.95
2023-01-29T13:16:23.858Z,0.99
2023-01-29T13:18:56.187Z,1.05
2023-01-29T13:21:29.853Z,1.00
2023-01-29T13:24:04.633Z,1.12
2023-01-29T13:26:31.731Z,1.02
2023-01-29T13:28:58.644Z,1.03
2023-01-29T13:31:35.633Z,1.11
2023-01-29T13:34:20.657Z,0.97
2023-01-29T13:36:50.312Z,1.08
2023-01-29T13:39:29.628Z,1.19
2023-01-29T13:41:57.190Z,1.14
2023-01-29T13:44:23.479Z,1.20
2023-01-29T13:47:01.410Z,1.26
2023-01-29T13:49:31.748Z,1.23
2023-01-29T13:51:58.750Z,1.09
2023-01-29T13:54:26.478Z,1.13
2023-01-29T13:56:55.763Z,1.11
2023-01-29T13:59:52.897Z,1.10
2023-01-29T14:02:24.954Z,1.07
2023-01-29T14:04:51.530Z,0.96
2023-01-29T14:07:39.867Z,0.96
2023-01-29T14:10:23.357Z,1.04
2023-01-29T14:13:11.274Z,0.96
2023-01-29T14:15:39.527Z,0.97
2023-01-29T14:18:15.642Z,1.04
2023-01-29T14:20:48.076Z,0.99
2023-01-29T14:23:36.831Z,1.08
2023-01-29T14:26:05.543Z,0.95
2023-01-29T14:28:34.091Z,1.01
2023-01-29T14:31:00.901Z,0.92
2023-01-29T14:33:32.741Z,0.91
2023-01-29T14:35:59.823Z,0.94
2023-01-29T14:38:27.883Z,0.89
2023-01-29T14:41:04.847Z,0.91
2023-01-29T14:43:31.436Z,0.94
2023-01-29T14:46:35.697Z,0.96
2023-01-29T14:49:02.607Z,0.95
2023-01-29T14:51:34.652Z,0.98
2023-01-29T14:54:25.293Z,0.98
2023-01-29T14:56:54.399Z,0.96
2023-01-29T14:59:37.291Z,0.94
2023-01-29T15:02:18.510Z,0.91
2023-01-29T15:04:50.080Z,0.90
2023-01-29T15:07:34.130Z,0.95
2023-01-29T15:10:24.059Z,0.97
2023-01-29T15:13:00.780Z,0.90
2023-01-29T15:15:39.491Z,0.90
2023-01-29T15:18:12.675Z,0.98
2023-01-29T15:20:40.682Z,0.89
2023-01-29T15:23:26.216Z,0.95
2023-01-29T15:25:57.361Z,0.98
2023-01-29T15:28:24.111Z,0.96
2023-01-29T15:30:57.646Z,0.97
2023-01-29T15:33:24.210Z,0.94
2023-01-29T15:36:06.923Z,0.98
2023-01-29T15:38:33.978Z,0.92
2023-01-29T15:41:13.860Z,0.95
2023-01-29T15:43:44.537Z,0.98
2023-01-29T15:46:16.686Z,0.97
2023-01-29T15:48:44.337Z,1.03
2023-01-29T15:51:18.158Z,1.00
2023-01-29T15:53:51.560Z,0.92
2023-01-29T15:56:21.545Z,0.96
2023-01-29T15:58:49.219Z,1.08
2023-01-29T16:01:15.639Z,1.09
2023-01-29T16:03:42.583Z,1.07
2023-01-29T16:06:09.258Z,1.02
2023-01-29T16:08:36.039Z,0.96
2023-01-29T16:11:05.029Z,0.99
2023-01-29T16:13:33.946Z,1.05
2023-01-29T16:16:08.251Z,1.05
2023-01-29T16:18:41.093Z,1.02
2023-01-29T16:21:30.785Z,0.98
2023-01-29T16:24:10.013Z,1.01
2023-01-29T16:26:39.390Z,0.95
2023-01-29T16:29:07.777Z,0.96
2023-01-29T16:31:35.777Z,0.94
2023-01-29T16:34:26.000Z,0.94
2023-01-29T16:36:54.537Z,0.94
2023-01-29T16:39:23.547Z,0.95
2023-01-29T16:42:30.245Z,0.99
2023-01-29T16:45:03.848Z,0.99
2023-01-29T16:47:38.604Z,1.01
2023-01-29T16:50:27.049Z,1.04
2023-01-29T16:52:58.007Z,1.04
2023-01-29T16:55:25.503Z,0.99
2023-01-29T16:57:55.817Z,1.04
2023-01-29T17:00:27.499Z,1.06
2023-01-29T17:03:02.949Z,1.12
2023-01-29T17:05:31.666Z,1.13
2023-01-29T17:07:58.766Z,1.12
2023-01-29T17:10:27.437Z,1.22
2023-01-29T17:12:59.520Z,1.14
2023-01-29T17:15:31.049Z,1.17
2023-01-29T17:17:57.571Z,1.23
2023-01-29T17:20:24.223Z,1.18
2023-01-29T17:22:50.620Z,1.20
2023-01-29T17:25:18.794Z,1.20
2023-01-29T17:27:51.391Z,1.21
2023-01-29T17:30:19.739Z,1.28
2023-01-29T17:32:47.496Z,1.25
2023-01-29T17:35:15.601Z,1.22
2023-01-29T17:37:42.293Z,1.24
2023-01-29T17:40:18.869Z,1.18
2023-01-29T17:42:45.297Z,1.24
2023-01-29T17:45:11.673Z,1.31
2023-01-29T17:47:38.057Z,1.28
2023-01-29T17:50:17.179Z,1.28
2023-01-29T17:52:43.591Z,1.30
2023-01-29T17:55:09.969Z,1.36
2023-01-29T17:57:36.334Z,1.38
2023-01-29T18:00:02.732Z,1.28
2023-01-29T18:02:30.059Z,1.29
2023-01-29T18:04:56.577Z,1.26
2023-01-29T18:07:22.963Z,1.28
2023-01-29T18:09:49.314Z,1.32
2023-01-29T18:12:15.718Z,1.27
2023-01-29T18:14:42.075Z,1.26
2023-01-29T18:17:08.463Z,1.33
2023-01-29T18:19:34.865Z,1.28
2023-01-29T18:22:01.434Z,1.29
2023-01-29T18:24:27.909Z,1.20
2023-01-29T18:26:54.350Z,1.26
2023-01-29T18:29:20.886Z,1.23
2023-01-29T18:31:50.582Z,1.21
2023-01-29T18:34:17.177Z,1.23
2023-01-29T18:36:46.910Z,1.21
2023-01-29T18:39:16.431Z,1.18
2023-01-29T18:41:42.843Z,1.21
2023-01-29T18:44:10.583Z,1.18
2023-01-29T18:46:37.027Z,1.11
2023-01-29T18:49:05.161Z,1.14
2023-01-29T18:51:31.764Z,1.21
2023-01-29T18:53:58.164Z,1.30
2023-01-29T18:56:24.747Z,1.21
2023-01-29T18:58:55.822Z,1.20
2023-01-29T19:01:23.323Z,1.24
2023-01-29T19:03:49.821Z,1.23
2023-01-29T19:06:16.318Z,1.19
2023-01-29T19:08:43.858Z,1.25
2023-01-29T19:11:12.373Z,1.17
2023-01-29T19:13:38.846Z,1.15
2023-01-29T19:16:09.345Z,1.15
2023-01-29T19:18:36.133Z,1.14
2023-01-29T19:21:15.547Z,1.06
2023-01-29T19:23:43.341Z,1.01
2023-01-29T19:26:09.961Z,1.03
2023-01-29T19:28:36.416Z,0.95
2023-01-29T19:31:03.452Z,0.99
2023-01-29T19:33:30.014Z,1.04
2023-01-29T19:35:57.351Z,0.99
2023-01-29T19:38:23.865Z,0.95
2023-01-29T19:40:50.863Z,0.99
2023-01-29T19:43:18.036Z,1.01
2023-01-29T19:45:50.205Z,0.99
2023-01-29T19:48:21.172Z,0.97
2023-01-29T19:50:55.280Z,1.01
2023-01-29T19:53:22.747Z,1.04
2023-01-29T19:56:00.372Z,0.98
2023-01-29T19:58:27.111Z,0.99
2023-01-29T20:00:57.302Z,0.99
2023-01-29T20:03:23.879Z,1.06
2023-01-29T20:05:50.324Z,1.08
2023-01-29T20:08:17.229Z,1.17
2023-01-29T20:10:47.818Z,1.14
2023-01-29T20:13:15.752Z,1.14
2023-01-29T20:15:45.841Z,1.20
2023-01-29T20:18:13.299Z,1.26
2023-01-29T20:20:44.333Z,1.29
2023-01-29T20:23:11.494Z,1.30
2023-01-29T20:25:38.276Z,1.30
2023-01-29T20:28:05.873Z,1.29
2023-01-29T20:30:33.412Z,1.37
2023-01-29T20:33:01.656Z,1.40
2023-01-29T20:35:32.444Z,1.40
2023-01-29T20:37:59.120Z,1.38
2023-01-29T20:40:26.057Z,1.47
2023-01-29T20:42:52.934Z,1.47
2023-01-29T20:45:19.867Z,1.43
2023-01-29T20:47:46.333Z,1.47
2023-01-29T20:50:14.907Z,1.55
2023-01-29T20:52:42.247Z,1.51
2023-01-29T20:55:10.925Z,1.50
2023-01-29T20:57:37.549Z,1.47
2023-01-29T21:00:08.704Z,1.55
2023-01-29T21:02:35.173Z,1.53
2023-01-29T21:05:01.576Z,1.52
2023-01-29T21:07:28.021Z,1.47
2023-01-29T21:09:54.436Z,1.50
2023-01-29T21:12:20.885Z,1.55
2023-01-29T21:14:47.245Z,1.52
2023-01-29T21:17:13.641Z,1.54
2023-01-29T21:19:40.009Z,1.54
2023-01-29T21:22:06.399Z,1.54
2023-01-29T21:24:32.884Z,1.50
2023-01-29T21:26:59.236Z,1.54
2023-01-29T21:29:25.675Z,1.57
2023-01-29T21:31:52.078Z,1.54
2023-01-29T21:34:18.624Z,1.52
2023-01-29T21:36:46.689Z,1.51
2023-01-29T21:39:20.792Z,1.50
2023-01-29T21:42:07.307Z,1.59
2023-01-29T21:44:33.941Z,1.61
2023-01-29T21:47:00.913Z,1.55
2023-01-29T21:49:27.606Z,1.51
2023-01-29T21:51:54.588Z,1.60
2023-01-29T21:54:21.079Z,1.55
2023-01-29T21:56:47.622Z,1.61
2023-01-29T21:59:14.020Z,1.64
2023-01-29T22:01:40.507Z,1.68
2023-01-29T22:04:08.535Z,1.76
2023-01-29T22:06:34.921Z,1.65
2023-01-29T22:09:01.293Z,1.64
2023-01-29T22:11:28.339Z,1.68
2023-01-29T22:13:54.718Z,1.67
2023-01-29T22:16:21.085Z,1.73
2023-01-29T22:18:49.369Z,1.75
2023-01-29T22:21:15.741Z,1.80
2023-01-29T22:23:42.113Z,1.80
2023-01-29T22:26:09.785Z,1.80
2023-01-29T22:28:36.286Z,1.81
2023-01-29T22:31:03.668Z,1.80
2023-01-29T22:33:30.381Z,1.82
2023-01-29T22:35:57.057Z,1.82
2023-01-29T22:38:23.800Z,1.83
2023-01-29T22:40:51.138Z,1.84
2023-01-29T22:43:17.699Z,1.84
2023-01-29T22:45:44.553Z,1.87
2023-01-29T22:48:11.697Z,1.86
2023-01-29T22:50:38.954Z,1.81
2023-01-29T22:53:05.781Z,1.80
2023-01-29T22:55:32.467Z,1.75
2023-01-29T22:57:58.981Z,1.80
2023-01-29T23:00:25.444Z,1.80
2023-01-29T23:02:51.824Z,1.84
2023-01-29T23:05:18.501Z,1.87
2023-01-29T23:07:45.155Z,1.90
2023-01-29T23:10:14.138Z,1.88
2023-01-29T23:12:40.621Z,1.84
2023-01-29T23:15:07.542Z,1.84
2023-01-29T23:17:34.092Z,1.85
2023-01-29T23:20:00.643Z,1.84
2023-01-29T23:22:27.060Z,1.81
2023-01-29T23:24:53.471Z,1.86
2023-01-29T23:27:20.003Z,1.86
2023-01-29T23:29:47.639Z,1.89
2023-01-29T23:32:19.462Z,2.03
2023-01-29T23:34:45.937Z,2.00
2023-01-29T23:37:12.309Z,2.00
2023-01-29T23:39:38.705Z,1.99
2023-01-29T23:42:05.256Z,2.07
2023-01-29T23:44:31.674Z,2.07
2023-01-29T23:46:58.102Z,2.09
2023-01-29T23:49:24.469Z,2.09
2023-01-29T23:51:51.085Z,2.12
2023-01-29T23:54:17.734Z,2.15
2023-01-29T23:56:45.024Z,2.15
2023-01-29T23:59:12.175Z,2.21
